sensor_id;sensor_type;location;lat;lon;timestamp;temperature;humidity
4312;DHT22;2169;49.086;9.284;2022-07-23T00:01:39;26.40;47.60
4312;DHT22;2169;49.086;9.284;2022-07-23T00:04:07;26.40;47.50
4312;DHT22;2169;49.086;9.284;2022-07-23T00:06:34;26.40;47.50
4312;DHT22;2169;49.086;9.284;2022-07-23T00:09:00;26.40;47.50
4312;DHT22;2169;49.086;9.284;2022-07-23T00:11:28;26.40;47.60
4312;DHT22;2169;49.086;9.284;2022-07-23T00:13:55;26.30;47.40
4312;DHT22;2169;49.086;9.284;2022-07-23T00:16:23;26.30;47.30
4312;DHT22;2169;49.086;9.284;2022-07-23T00:18:50;26.30;47.20
4312;DHT22;2169;49.086;9.284;2022-07-23T00:21:17;26.30;47.10
4312;DHT22;2169;49.086;9.284;2022-07-23T00:23:43;26.30;47.10
4312;DHT22;2169;49.086;9.284;2022-07-23T00:26:10;26.30;47.00
4312;DHT22;2169;49.086;9.284;2022-07-23T00:28:38;26.30;47.00
4312;DHT22;2169;49.086;9.284;2022-07-23T00:31:05;26.30;47.00
4312;DHT22;2169;49.086;9.284;2022-07-23T00:33:32;26.30;47.00
4312;DHT22;2169;49.086;9.284;2022-07-23T00:35:58;26.30;47.00
4312;DHT22;2169;49.086;9.284;2022-07-23T00:38:25;26.30;47.00
4312;DHT22;2169;49.086;9.284;2022-07-23T00:40:52;26.30;46.90
4312;DHT22;2169;49.086;9.284;2022-07-23T00:43:20;26.30;46.80
4312;DHT22;2169;49.086;9.284;2022-07-23T00:45:48;26.30;46.80
4312;DHT22;2169;49.086;9.284;2022-07-23T00:48:15;26.30;46.80
4312;DHT22;2169;49.086;9.284;2022-07-23T00:50:42;26.30;46.70
4312;DHT22;2169;49.086;9.284;2022-07-23T00:53:10;26.30;46.80
4312;DHT22;2169;49.086;9.284;2022-07-23T00:55:37;26.30;46.80
4312;DHT22;2169;49.086;9.284;2022-07-23T00:58:04;26.30;46.80
4312;DHT22;2169;49.086;9.284;2022-07-23T01:00:31;26.30;46.80
4312;DHT22;2169;49.086;9.284;2022-07-23T01:02:59;26.30;46.70
4312;DHT22;2169;49.086;9.284;2022-07-23T01:05:26;26.30;46.70
4312;DHT22;2169;49.086;9.284;2022-07-23T01:07:53;26.30;46.70
4312;DHT22;2169;49.086;9.284;2022-07-23T01:10:20;26.30;46.80
4312;DHT22;2169;49.086;9.284;2022-07-23T01:13:00;26.30;46.80
4312;DHT22;2169;49.086;9.284;2022-07-23T01:15:27;26.20;46.90
4312;DHT22;2169;49.086;9.284;2022-07-23T01:17:54;26.30;47.10
4312;DHT22;2169;49.086;9.284;2022-07-23T01:20:22;26.20;47.20
4312;DHT22;2169;49.086;9.284;2022-07-23T01:22:51;26.10;47.30
4312;DHT22;2169;49.086;9.284;2022-07-23T01:25:18;26.10;47.40
4312;DHT22;2169;49.086;9.284;2022-07-23T01:27:45;26.00;47.50
4312;DHT22;2169;49.086;9.284;2022-07-23T01:30:13;25.90;47.40
4312;DHT22;2169;49.086;9.284;2022-07-23T01:32:40;25.90;47.40
4312;DHT22;2169;49.086;9.284;2022-07-23T01:35:08;25.80;47.40
4312;DHT22;2169;49.086;9.284;2022-07-23T01:37:35;25.80;47.50
4312;DHT22;2169;49.086;9.284;2022-07-23T01:40:05;25.80;47.50
4312;DHT22;2169;49.086;9.284;2022-07-23T01:42:32;25.80;47.50
4312;DHT22;2169;49.086;9.284;2022-07-23T01:44:59;25.70;47.40
4312;DHT22;2169;49.086;9.284;2022-07-23T01:47:26;25.70;47.40
4312;DHT22;2169;49.086;9.284;2022-07-23T01:49:52;25.60;47.30
4312;DHT22;2169;49.086;9.284;2022-07-23T01:52:19;25.60;47.30
4312;DHT22;2169;49.086;9.284;2022-07-23T01:54:46;25.60;47.30
4312;DHT22;2169;49.086;9.284;2022-07-23T01:57:14;25.50;47.40
4312;DHT22;2169;49.086;9.284;2022-07-23T01:59:41;25.50;47.50
4312;DHT22;2169;49.086;9.284;2022-07-23T02:02:08;25.50;47.60
4312;DHT22;2169;49.086;9.284;2022-07-23T02:04:34;25.50;47.80
4312;DHT22;2169;49.086;9.284;2022-07-23T02:07:02;25.40;47.90
4312;DHT22;2169;49.086;9.284;2022-07-23T02:09:29;25.40;48.10
4312;DHT22;2169;49.086;9.284;2022-07-23T02:11:56;25.30;48.00
4312;DHT22;2169;49.086;9.284;2022-07-23T02:14:24;25.30;48.20
4312;DHT22;2169;49.086;9.284;2022-07-23T02:16:51;25.30;48.50
4312;DHT22;2169;49.086;9.284;2022-07-23T02:19:18;25.20;48.60
4312;DHT22;2169;49.086;9.284;2022-07-23T02:21:44;25.20;48.70
4312;DHT22;2169;49.086;9.284;2022-07-23T02:24:11;25.20;48.80
4312;DHT22;2169;49.086;9.284;2022-07-23T02:26:38;25.10;48.80
4312;DHT22;2169;49.086;9.284;2022-07-23T02:29:05;25.00;48.80
4312;DHT22;2169;49.086;9.284;2022-07-23T02:31:33;25.00;48.90
4312;DHT22;2169;49.086;9.284;2022-07-23T02:34:00;24.90;48.90
4312;DHT22;2169;49.086;9.284;2022-07-23T02:36:27;24.90;49.10
4312;DHT22;2169;49.086;9.284;2022-07-23T02:38:54;24.80;49.10
4312;DHT22;2169;49.086;9.284;2022-07-23T02:41:22;24.70;49.20
4312;DHT22;2169;49.086;9.284;2022-07-23T02:43:49;24.70;49.30
4312;DHT22;2169;49.086;9.284;2022-07-23T02:46:15;24.70;49.40
4312;DHT22;2169;49.086;9.284;2022-07-23T02:48:44;24.70;49.50
4312;DHT22;2169;49.086;9.284;2022-07-23T02:51:10;24.70;50.20
4312;DHT22;2169;49.086;9.284;2022-07-23T02:53:37;24.60;49.60
4312;DHT22;2169;49.086;9.284;2022-07-23T02:56:04;24.60;49.70
4312;DHT22;2169;49.086;9.284;2022-07-23T02:58:31;24.50;49.70
4312;DHT22;2169;49.086;9.284;2022-07-23T03:00:58;24.50;49.70
4312;DHT22;2169;49.086;9.284;2022-07-23T03:03:24;24.50;49.80
4312;DHT22;2169;49.086;9.284;2022-07-23T03:05:52;24.50;49.80
4312;DHT22;2169;49.086;9.284;2022-07-23T03:08:19;24.40;49.80
4312;DHT22;2169;49.086;9.284;2022-07-23T03:10:46;24.40;49.90
4312;DHT22;2169;49.086;9.284;2022-07-23T03:13:13;24.50;50.00
4312;DHT22;2169;49.086;9.284;2022-07-23T03:15:40;24.40;50.00
4312;DHT22;2169;49.086;9.284;2022-07-23T03:18:06;24.40;50.20
4312;DHT22;2169;49.086;9.284;2022-07-23T03:20:33;24.40;50.40
4312;DHT22;2169;49.086;9.284;2022-07-23T03:23:01;24.30;50.40
4312;DHT22;2169;49.086;9.284;2022-07-23T03:25:28;24.30;50.60
4312;DHT22;2169;49.086;9.284;2022-07-23T03:27:55;24.30;50.60
4312;DHT22;2169;49.086;9.284;2022-07-23T03:30:22;24.30;50.70
4312;DHT22;2169;49.086;9.284;2022-07-23T03:32:48;24.30;50.80
4312;DHT22;2169;49.086;9.284;2022-07-23T03:35:15;24.20;50.90
4312;DHT22;2169;49.086;9.284;2022-07-23T03:37:42;24.20;51.00
4312;DHT22;2169;49.086;9.284;2022-07-23T03:40:11;24.20;51.10
4312;DHT22;2169;49.086;9.284;2022-07-23T03:42:38;24.20;51.20
4312;DHT22;2169;49.086;9.284;2022-07-23T03:45:07;24.20;51.30
4312;DHT22;2169;49.086;9.284;2022-07-23T03:47:34;24.20;51.40
4312;DHT22;2169;49.086;9.284;2022-07-23T03:50:01;24.10;51.40
4312;DHT22;2169;49.086;9.284;2022-07-23T03:52:27;24.10;51.50
4312;DHT22;2169;49.086;9.284;2022-07-23T03:54:54;24.10;51.40
4312;DHT22;2169;49.086;9.284;2022-07-23T03:57:22;24.10;51.40
4312;DHT22;2169;49.086;9.284;2022-07-23T03:59:49;24.10;51.30
4312;DHT22;2169;49.086;9.284;2022-07-23T04:02:16;24.00;51.30
4312;DHT22;2169;49.086;9.284;2022-07-23T04:04:43;24.00;51.30
4312;DHT22;2169;49.086;9.284;2022-07-23T04:07:09;24.00;51.30
4312;DHT22;2169;49.086;9.284;2022-07-23T04:09:36;24.00;51.30
4312;DHT22;2169;49.086;9.284;2022-07-23T04:12:03;23.90;51.20
4312;DHT22;2169;49.086;9.284;2022-07-23T04:14:32;24.00;51.30
4312;DHT22;2169;49.086;9.284;2022-07-23T04:16:59;24.00;51.30
4312;DHT22;2169;49.086;9.284;2022-07-23T04:19:26;23.90;51.30
4312;DHT22;2169;49.086;9.284;2022-07-23T04:21:53;23.90;51.30
4312;DHT22;2169;49.086;9.284;2022-07-23T04:24:19;23.90;51.30
4312;DHT22;2169;49.086;9.284;2022-07-23T04:26:46;23.90;51.40
4312;DHT22;2169;49.086;9.284;2022-07-23T04:29:13;23.90;51.50
4312;DHT22;2169;49.086;9.284;2022-07-23T04:31:41;23.90;51.60
4312;DHT22;2169;49.086;9.284;2022-07-23T04:34:08;23.90;51.80
4312;DHT22;2169;49.086;9.284;2022-07-23T04:36:34;23.90;51.90
4312;DHT22;2169;49.086;9.284;2022-07-23T04:39:01;23.90;52.00
4312;DHT22;2169;49.086;9.284;2022-07-23T04:41:28;23.80;52.10
4312;DHT22;2169;49.086;9.284;2022-07-23T04:43:55;23.80;52.30
4312;DHT22;2169;49.086;9.284;2022-07-23T04:46:22;23.80;52.40
4312;DHT22;2169;49.086;9.284;2022-07-23T04:48:50;23.80;52.40
4312;DHT22;2169;49.086;9.284;2022-07-23T04:51:16;23.80;52.40
4312;DHT22;2169;49.086;9.284;2022-07-23T04:53:43;23.90;52.50
4312;DHT22;2169;49.086;9.284;2022-07-23T04:56:10;23.80;52.40
4312;DHT22;2169;49.086;9.284;2022-07-23T04:58:37;23.90;52.50
4312;DHT22;2169;49.086;9.284;2022-07-23T05:01:04;23.90;52.50
4312;DHT22;2169;49.086;9.284;2022-07-23T05:03:30;23.90;52.60
4312;DHT22;2169;49.086;9.284;2022-07-23T05:05:59;23.90;52.60
4312;DHT22;2169;49.086;9.284;2022-07-23T05:08:26;23.90;52.70
4312;DHT22;2169;49.086;9.284;2022-07-23T05:10:53;23.90;52.70
4312;DHT22;2169;49.086;9.284;2022-07-23T05:13:19;23.90;52.70
4312;DHT22;2169;49.086;9.284;2022-07-23T05:15:47;23.90;52.70
4312;DHT22;2169;49.086;9.284;2022-07-23T05:18:14;23.90;52.80
4312;DHT22;2169;49.086;9.284;2022-07-23T05:20:40;23.90;52.80
4312;DHT22;2169;49.086;9.284;2022-07-23T05:23:09;23.90;52.90
4312;DHT22;2169;49.086;9.284;2022-07-23T05:25:36;23.90;52.90
4312;DHT22;2169;49.086;9.284;2022-07-23T05:28:03;23.90;53.00
4312;DHT22;2169;49.086;9.284;2022-07-23T05:30:30;23.90;53.10
4312;DHT22;2169;49.086;9.284;2022-07-23T05:32:56;23.90;53.20
4312;DHT22;2169;49.086;9.284;2022-07-23T05:35:23;23.90;53.30
4312;DHT22;2169;49.086;9.284;2022-07-23T05:37:50;23.90;53.50
4312;DHT22;2169;49.086;9.284;2022-07-23T05:40:19;23.90;53.60
4312;DHT22;2169;49.086;9.284;2022-07-23T05:42:46;23.90;53.70
4312;DHT22;2169;49.086;9.284;2022-07-23T05:45:13;23.90;53.70
4312;DHT22;2169;49.086;9.284;2022-07-23T05:47:44;23.90;53.70
4312;DHT22;2169;49.086;9.284;2022-07-23T05:50:11;23.90;53.60
4312;DHT22;2169;49.086;9.284;2022-07-23T05:52:38;23.90;53.50
4312;DHT22;2169;49.086;9.284;2022-07-23T05:55:05;23.90;53.50
4312;DHT22;2169;49.086;9.284;2022-07-23T05:57:34;23.90;53.50
4312;DHT22;2169;49.086;9.284;2022-07-23T06:00:01;23.90;53.50
4312;DHT22;2169;49.086;9.284;2022-07-23T06:02:28;23.90;53.60
4312;DHT22;2169;49.086;9.284;2022-07-23T06:04:55;23.90;53.70
4312;DHT22;2169;49.086;9.284;2022-07-23T06:07:22;23.80;53.70
4312;DHT22;2169;49.086;9.284;2022-07-23T06:09:48;23.80;54.30
4312;DHT22;2169;49.086;9.284;2022-07-23T06:12:16;23.70;54.70
4312;DHT22;2169;49.086;9.284;2022-07-23T06:14:44;23.70;55.10
4312;DHT22;2169;49.086;9.284;2022-07-23T06:17:13;23.70;55.40
4312;DHT22;2169;49.086;9.284;2022-07-23T06:19:40;23.60;55.50
4312;DHT22;2169;49.086;9.284;2022-07-23T06:22:07;23.50;55.60
4312;DHT22;2169;49.086;9.284;2022-07-23T06:24:34;23.50;55.90
4312;DHT22;2169;49.086;9.284;2022-07-23T06:27:01;23.40;56.10
4312;DHT22;2169;49.086;9.284;2022-07-23T06:29:27;23.30;56.20
4312;DHT22;2169;49.086;9.284;2022-07-23T06:31:55;23.30;56.60
4312;DHT22;2169;49.086;9.284;2022-07-23T06:34:22;23.30;56.80
4312;DHT22;2169;49.086;9.284;2022-07-23T06:36:49;23.20;56.80
4312;DHT22;2169;49.086;9.284;2022-07-23T06:39:16;23.20;56.90
4312;DHT22;2169;49.086;9.284;2022-07-23T06:41:43;23.20;57.10
4312;DHT22;2169;49.086;9.284;2022-07-23T06:44:10;23.20;57.40
4312;DHT22;2169;49.086;9.284;2022-07-23T06:46:36;23.20;57.80
4312;DHT22;2169;49.086;9.284;2022-07-23T06:49:04;23.20;58.20
4312;DHT22;2169;49.086;9.284;2022-07-23T06:51:31;23.20;58.50
4312;DHT22;2169;49.086;9.284;2022-07-23T06:53:58;23.30;58.80
4312;DHT22;2169;49.086;9.284;2022-07-23T06:56:25;23.30;58.90
4312;DHT22;2169;49.086;9.284;2022-07-23T06:58:51;23.30;59.20
4312;DHT22;2169;49.086;9.284;2022-07-23T07:01:19;23.40;59.60
4312;DHT22;2169;49.086;9.284;2022-07-23T07:03:47;23.40;59.80
4312;DHT22;2169;49.086;9.284;2022-07-23T07:06:15;23.40;59.90
4312;DHT22;2169;49.086;9.284;2022-07-23T07:08:42;23.40;60.00
4312;DHT22;2169;49.086;9.284;2022-07-23T07:11:09;23.40;60.10
4312;DHT22;2169;49.086;9.284;2022-07-23T07:13:36;23.40;60.30
4312;DHT22;2169;49.086;9.284;2022-07-23T07:16:03;23.40;60.40
4312;DHT22;2169;49.086;9.284;2022-07-23T07:18:30;23.40;60.50
4312;DHT22;2169;49.086;9.284;2022-07-23T07:20:57;23.40;60.70
4312;DHT22;2169;49.086;9.284;2022-07-23T07:23:25;23.40;60.90
4312;DHT22;2169;49.086;9.284;2022-07-23T07:25:52;23.40;61.10
4312;DHT22;2169;49.086;9.284;2022-07-23T07:28:19;23.40;61.20
4312;DHT22;2169;49.086;9.284;2022-07-23T07:30:46;23.40;61.30
4312;DHT22;2169;49.086;9.284;2022-07-23T07:33:12;23.40;61.40
4312;DHT22;2169;49.086;9.284;2022-07-23T07:35:39;23.40;61.50
4312;DHT22;2169;49.086;9.284;2022-07-23T07:38:06;23.30;61.40
4312;DHT22;2169;49.086;9.284;2022-07-23T07:40:34;23.30;61.40
4312;DHT22;2169;49.086;9.284;2022-07-23T07:43:01;23.30;61.40
4312;DHT22;2169;49.086;9.284;2022-07-23T07:45:28;23.30;61.50
4312;DHT22;2169;49.086;9.284;2022-07-23T07:47:55;23.30;61.50
4312;DHT22;2169;49.086;9.284;2022-07-23T07:50:23;23.30;61.60
4312;DHT22;2169;49.086;9.284;2022-07-23T07:52:49;23.30;61.50
4312;DHT22;2169;49.086;9.284;2022-07-23T07:55:16;23.30;61.50
4312;DHT22;2169;49.086;9.284;2022-07-23T07:57:44;23.30;61.50
4312;DHT22;2169;49.086;9.284;2022-07-23T08:00:12;23.40;61.60
4312;DHT22;2169;49.086;9.284;2022-07-23T08:02:43;23.40;61.60
4312;DHT22;2169;49.086;9.284;2022-07-23T08:05:11;23.40;61.80
4312;DHT22;2169;49.086;9.284;2022-07-23T08:07:39;23.40;61.90
4312;DHT22;2169;49.086;9.284;2022-07-23T08:10:07;23.40;61.90
4312;DHT22;2169;49.086;9.284;2022-07-23T08:12:39;23.50;62.00
4312;DHT22;2169;49.086;9.284;2022-07-23T08:15:08;23.50;62.20
4312;DHT22;2169;49.086;9.284;2022-07-23T08:17:36;23.50;62.20
4312;DHT22;2169;49.086;9.284;2022-07-23T08:20:03;23.60;62.30
4312;DHT22;2169;49.086;9.284;2022-07-23T08:22:48;23.60;62.20
4312;DHT22;2169;49.086;9.284;2022-07-23T08:25:16;23.70;62.20
4312;DHT22;2169;49.086;9.284;2022-07-23T08:27:43;23.60;62.20
4312;DHT22;2169;49.086;9.284;2022-07-23T08:30:11;23.60;62.10
4312;DHT22;2169;49.086;9.284;2022-07-23T08:32:49;23.70;62.30
4312;DHT22;2169;49.086;9.284;2022-07-23T08:35:16;23.70;62.30
4312;DHT22;2169;49.086;9.284;2022-07-23T08:37:43;23.70;62.50
4312;DHT22;2169;49.086;9.284;2022-07-23T08:40:11;23.70;62.60
4312;DHT22;2169;49.086;9.284;2022-07-23T08:42:38;23.70;62.80
4312;DHT22;2169;49.086;9.284;2022-07-23T08:45:07;23.80;63.10
4312;DHT22;2169;49.086;9.284;2022-07-23T08:47:37;23.80;63.20
4312;DHT22;2169;49.086;9.284;2022-07-23T08:50:04;23.90;63.40
4312;DHT22;2169;49.086;9.284;2022-07-23T08:52:32;23.80;63.20
4312;DHT22;2169;49.086;9.284;2022-07-23T08:55:00;23.80;63.30
4312;DHT22;2169;49.086;9.284;2022-07-23T08:57:27;23.90;63.30
4312;DHT22;2169;49.086;9.284;2022-07-23T08:59:54;23.90;63.30
4312;DHT22;2169;49.086;9.284;2022-07-23T09:02:21;23.90;63.20
4312;DHT22;2169;49.086;9.284;2022-07-23T09:04:49;23.90;63.20
4312;DHT22;2169;49.086;9.284;2022-07-23T09:07:16;23.90;63.00
4312;DHT22;2169;49.086;9.284;2022-07-23T09:09:43;23.90;63.00
4312;DHT22;2169;49.086;9.284;2022-07-23T09:12:10;23.80;63.70
4312;DHT22;2169;49.086;9.284;2022-07-23T09:14:39;23.80;63.10
4312;DHT22;2169;49.086;9.284;2022-07-23T09:17:13;23.90;63.30
4312;DHT22;2169;49.086;9.284;2022-07-23T09:19:42;23.90;63.20
4312;DHT22;2169;49.086;9.284;2022-07-23T09:22:21;23.90;63.20
4312;DHT22;2169;49.086;9.284;2022-07-23T09:25:09;23.90;63.00
4312;DHT22;2169;49.086;9.284;2022-07-23T09:27:48;24.00;62.90
4312;DHT22;2169;49.086;9.284;2022-07-23T09:30:15;24.00;62.80
4312;DHT22;2169;49.086;9.284;2022-07-23T09:32:42;24.00;63.10
4312;DHT22;2169;49.086;9.284;2022-07-23T09:35:09;24.10;63.20
4312;DHT22;2169;49.086;9.284;2022-07-23T09:37:37;24.10;63.30
4312;DHT22;2169;49.086;9.284;2022-07-23T09:40:05;24.20;63.20
4312;DHT22;2169;49.086;9.284;2022-07-23T09:42:33;24.30;63.30
4312;DHT22;2169;49.086;9.284;2022-07-23T09:45:00;24.40;63.20
4312;DHT22;2169;49.086;9.284;2022-07-23T09:47:28;24.50;63.40
4312;DHT22;2169;49.086;9.284;2022-07-23T09:50:00;24.60;63.40
4312;DHT22;2169;49.086;9.284;2022-07-23T09:52:28;24.70;63.30
4312;DHT22;2169;49.086;9.284;2022-07-23T09:55:01;24.80;63.20
4312;DHT22;2169;49.086;9.284;2022-07-23T09:57:28;24.90;63.10
4312;DHT22;2169;49.086;9.284;2022-07-23T10:00:00;25.00;63.10
4312;DHT22;2169;49.086;9.284;2022-07-23T10:02:28;25.20;62.90
4312;DHT22;2169;49.086;9.284;2022-07-23T10:04:55;25.30;62.50
4312;DHT22;2169;49.086;9.284;2022-07-23T10:07:22;25.50;62.20
4312;DHT22;2169;49.086;9.284;2022-07-23T10:09:50;25.60;62.10
4312;DHT22;2169;49.086;9.284;2022-07-23T10:12:20;25.70;61.80
4312;DHT22;2169;49.086;9.284;2022-07-23T10:15:02;25.90;61.40
4312;DHT22;2169;49.086;9.284;2022-07-23T10:17:31;26.10;61.10
4312;DHT22;2169;49.086;9.284;2022-07-23T10:19:58;26.20;60.70
4312;DHT22;2169;49.086;9.284;2022-07-23T10:22:26;26.40;60.30
4312;DHT22;2169;49.086;9.284;2022-07-23T10:24:59;26.50;59.70
4312;DHT22;2169;49.086;9.284;2022-07-23T10:30:43;26.80;58.60
4312;DHT22;2169;49.086;9.284;2022-07-23T10:33:27;26.90;58.00
4312;DHT22;2169;49.086;9.284;2022-07-23T10:36:02;27.00;57.50
4312;DHT22;2169;49.086;9.284;2022-07-23T10:38:35;27.10;57.10
4312;DHT22;2169;49.086;9.284;2022-07-23T10:41:05;27.20;56.80
4312;DHT22;2169;49.086;9.284;2022-07-23T10:43:32;27.30;56.10
4312;DHT22;2169;49.086;9.284;2022-07-23T10:46:22;27.50;55.90
4312;DHT22;2169;49.086;9.284;2022-07-23T10:49:23;27.60;55.30
4312;DHT22;2169;49.086;9.284;2022-07-23T10:55:38;27.80;54.50
4312;DHT22;2169;49.086;9.284;2022-07-23T10:57:47;27.90;54.00
4312;DHT22;2169;49.086;9.284;2022-07-23T11:00:17;28.00;53.30
4312;DHT22;2169;49.086;9.284;2022-07-23T11:02:49;28.10;53.00
4312;DHT22;2169;49.086;9.284;2022-07-23T11:05:17;28.20;52.20
4312;DHT22;2169;49.086;9.284;2022-07-23T11:08:11;28.30;50.90
4312;DHT22;2169;49.086;9.284;2022-07-23T11:10:41;28.40;50.30
4312;DHT22;2169;49.086;9.284;2022-07-23T11:13:28;28.40;50.00
4312;DHT22;2169;49.086;9.284;2022-07-23T11:19:07;28.60;49.50
4312;DHT22;2169;49.086;9.284;2022-07-23T11:21:44;28.70;48.90
4312;DHT22;2169;49.086;9.284;2022-07-23T11:24:13;28.80;48.80
4312;DHT22;2169;49.086;9.284;2022-07-23T11:26:45;28.80;48.60
4312;DHT22;2169;49.086;9.284;2022-07-23T11:29:49;28.90;48.50
4312;DHT22;2169;49.086;9.284;2022-07-23T11:32:38;29.10;48.50
4312;DHT22;2169;49.086;9.284;2022-07-23T11:35:26;29.10;48.10
4312;DHT22;2169;49.086;9.284;2022-07-23T11:38:03;29.20;47.80
4312;DHT22;2169;49.086;9.284;2022-07-23T11:40:30;29.30;47.60
4312;DHT22;2169;49.086;9.284;2022-07-23T11:42:59;29.30;47.50
4312;DHT22;2169;49.086;9.284;2022-07-23T11:45:32;29.40;47.40
4312;DHT22;2169;49.086;9.284;2022-07-23T11:48:00;29.40;47.30
4312;DHT22;2169;49.086;9.284;2022-07-23T11:50:28;29.40;47.30
4312;DHT22;2169;49.086;9.284;2022-07-23T11:52:55;29.50;47.30
4312;DHT22;2169;49.086;9.284;2022-07-23T11:55:23;29.50;47.10
4312;DHT22;2169;49.086;9.284;2022-07-23T11:57:51;29.60;47.10
4312;DHT22;2169;49.086;9.284;2022-07-23T12:00:20;29.60;46.70
4312;DHT22;2169;49.086;9.284;2022-07-23T12:02:48;29.60;46.50
4312;DHT22;2169;49.086;9.284;2022-07-23T12:05:17;29.70;46.40
4312;DHT22;2169;49.086;9.284;2022-07-23T12:07:47;29.80;46.00
4312;DHT22;2169;49.086;9.284;2022-07-23T12:10:17;29.90;45.60
4312;DHT22;2169;49.086;9.284;2022-07-23T12:12:46;29.90;44.80
4312;DHT22;2169;49.086;9.284;2022-07-23T12:15:16;30.00;44.40
4312;DHT22;2169;49.086;9.284;2022-07-23T12:17:44;30.00;43.80
4312;DHT22;2169;49.086;9.284;2022-07-23T12:20:13;30.10;43.30
4312;DHT22;2169;49.086;9.284;2022-07-23T12:22:41;30.10;42.60
4312;DHT22;2169;49.086;9.284;2022-07-23T12:25:13;30.20;42.40
4312;DHT22;2169;49.086;9.284;2022-07-23T12:27:40;30.20;41.90
4312;DHT22;2169;49.086;9.284;2022-07-23T12:30:18;30.20;41.80
4312;DHT22;2169;49.086;9.284;2022-07-23T12:32:46;30.30;41.50
4312;DHT22;2169;49.086;9.284;2022-07-23T12:35:14;30.30;41.00
4312;DHT22;2169;49.086;9.284;2022-07-23T12:37:42;30.30;40.80
4312;DHT22;2169;49.086;9.284;2022-07-23T12:40:25;30.30;40.60
4312;DHT22;2169;49.086;9.284;2022-07-23T12:42:56;30.40;40.40
4312;DHT22;2169;49.086;9.284;2022-07-23T12:45:23;30.40;40.40
4312;DHT22;2169;49.086;9.284;2022-07-23T12:48:02;30.40;40.40
4312;DHT22;2169;49.086;9.284;2022-07-23T12:50:43;30.40;40.20
4312;DHT22;2169;49.086;9.284;2022-07-23T12:53:12;30.40;40.40
4312;DHT22;2169;49.086;9.284;2022-07-23T12:55:41;30.40;40.50
4312;DHT22;2169;49.086;9.284;2022-07-23T12:58:10;30.50;40.70
4312;DHT22;2169;49.086;9.284;2022-07-23T13:01:05;30.60;40.60
4312;DHT22;2169;49.086;9.284;2022-07-23T13:03:37;30.70;40.60
4312;DHT22;2169;49.086;9.284;2022-07-23T13:06:06;30.70;40.40
4312;DHT22;2169;49.086;9.284;2022-07-23T13:08:34;30.70;40.30
4312;DHT22;2169;49.086;9.284;2022-07-23T13:11:04;30.90;40.40
4312;DHT22;2169;49.086;9.284;2022-07-23T13:13:33;30.90;40.20
4312;DHT22;2169;49.086;9.284;2022-07-23T13:16:00;31.00;40.00
4312;DHT22;2169;49.086;9.284;2022-07-23T13:18:28;31.00;39.60
4312;DHT22;2169;49.086;9.284;2022-07-23T13:20:55;31.00;39.30
4312;DHT22;2169;49.086;9.284;2022-07-23T13:23:22;31.00;39.30
4312;DHT22;2169;49.086;9.284;2022-07-23T13:25:49;31.10;39.40
4312;DHT22;2169;49.086;9.284;2022-07-23T13:28:19;31.10;39.10
4312;DHT22;2169;49.086;9.284;2022-07-23T13:30:47;31.20;39.20
4312;DHT22;2169;49.086;9.284;2022-07-23T13:33:16;31.30;39.10
4312;DHT22;2169;49.086;9.284;2022-07-23T13:35:43;31.40;39.00
4312;DHT22;2169;49.086;9.284;2022-07-23T13:38:10;31.40;38.90
4312;DHT22;2169;49.086;9.284;2022-07-23T13:40:39;31.50;38.80
4312;DHT22;2169;49.086;9.284;2022-07-23T13:43:07;31.50;38.50
4312;DHT22;2169;49.086;9.284;2022-07-23T13:45:36;31.60;38.20
4312;DHT22;2169;49.086;9.284;2022-07-23T13:48:04;31.60;38.10
4312;DHT22;2169;49.086;9.284;2022-07-23T13:50:31;31.60;38.10
4312;DHT22;2169;49.086;9.284;2022-07-23T13:53:01;31.60;38.20
4312;DHT22;2169;49.086;9.284;2022-07-23T13:55:28;31.60;38.10
4312;DHT22;2169;49.086;9.284;2022-07-23T13:57:55;31.60;37.90
4312;DHT22;2169;49.086;9.284;2022-07-23T14:00:21;31.70;37.90
4312;DHT22;2169;49.086;9.284;2022-07-23T14:02:50;31.80;37.80
4312;DHT22;2169;49.086;9.284;2022-07-23T14:05:17;31.90;37.50
4312;DHT22;2169;49.086;9.284;2022-07-23T14:07:43;31.90;37.10
4312;DHT22;2169;49.086;9.284;2022-07-23T14:10:12;32.00;37.10
4312;DHT22;2169;49.086;9.284;2022-07-23T14:12:39;32.10;36.80
4312;DHT22;2169;49.086;9.284;2022-07-23T14:15:07;32.10;36.50
4312;DHT22;2169;49.086;9.284;2022-07-23T14:17:35;32.10;36.30
4312;DHT22;2169;49.086;9.284;2022-07-23T14:20:05;32.20;36.10
4312;DHT22;2169;49.086;9.284;2022-07-23T14:22:32;32.20;36.20
4312;DHT22;2169;49.086;9.284;2022-07-23T14:24:59;32.20;36.80
4312;DHT22;2169;49.086;9.284;2022-07-23T14:27:27;32.20;35.80
4312;DHT22;2169;49.086;9.284;2022-07-23T14:29:55;32.20;35.70
4312;DHT22;2169;49.086;9.284;2022-07-23T14:32:22;32.30;35.60
4312;DHT22;2169;49.086;9.284;2022-07-23T14:34:49;32.30;35.60
4312;DHT22;2169;49.086;9.284;2022-07-23T14:37:17;32.40;35.60
4312;DHT22;2169;49.086;9.284;2022-07-23T14:39:45;32.40;35.50
4312;DHT22;2169;49.086;9.284;2022-07-23T14:42:12;32.50;35.40
4312;DHT22;2169;49.086;9.284;2022-07-23T14:44:39;32.50;35.00
4312;DHT22;2169;49.086;9.284;2022-07-23T14:47:08;32.60;35.00
4312;DHT22;2169;49.086;9.284;2022-07-23T14:49:35;32.60;34.80
4312;DHT22;2169;49.086;9.284;2022-07-23T14:52:03;32.70;34.80
4312;DHT22;2169;49.086;9.284;2022-07-23T14:54:31;32.70;34.60
4312;DHT22;2169;49.086;9.284;2022-07-23T14:56:59;32.70;34.60
4312;DHT22;2169;49.086;9.284;2022-07-23T14:59:27;32.70;34.60
4312;DHT22;2169;49.086;9.284;2022-07-23T15:01:56;32.70;34.60
4312;DHT22;2169;49.086;9.284;2022-07-23T15:04:23;32.60;34.80
4312;DHT22;2169;49.086;9.284;2022-07-23T15:06:50;32.60;34.90
4312;DHT22;2169;49.086;9.284;2022-07-23T15:09:17;32.60;34.80
4312;DHT22;2169;49.086;9.284;2022-07-23T15:11:45;32.60;34.90
4312;DHT22;2169;49.086;9.284;2022-07-23T15:14:12;32.70;35.00
4312;DHT22;2169;49.086;9.284;2022-07-23T15:16:39;32.70;34.90
4312;DHT22;2169;49.086;9.284;2022-07-23T15:19:06;32.70;34.80
4312;DHT22;2169;49.086;9.284;2022-07-23T15:21:33;32.80;34.80
4312;DHT22;2169;49.086;9.284;2022-07-23T15:23:59;32.70;34.70
4312;DHT22;2169;49.086;9.284;2022-07-23T15:26:27;32.80;34.70
4312;DHT22;2169;49.086;9.284;2022-07-23T15:28:56;32.80;35.50
4312;DHT22;2169;49.086;9.284;2022-07-23T15:31:24;32.80;34.80
4312;DHT22;2169;49.086;9.284;2022-07-23T15:33:51;32.80;34.90
4312;DHT22;2169;49.086;9.284;2022-07-23T15:36:17;32.90;34.80
4312;DHT22;2169;49.086;9.284;2022-07-23T15:38:45;32.90;34.90
4312;DHT22;2169;49.086;9.284;2022-07-23T15:41:11;32.90;34.70
4312;DHT22;2169;49.086;9.284;2022-07-23T15:43:38;33.00;34.70
4312;DHT22;2169;49.086;9.284;2022-07-23T15:46:07;33.10;34.70
4312;DHT22;2169;49.086;9.284;2022-07-23T15:48:35;33.10;34.50
4312;DHT22;2169;49.086;9.284;2022-07-23T15:51:02;33.10;34.40
4312;DHT22;2169;49.086;9.284;2022-07-23T15:53:29;33.10;34.40
4312;DHT22;2169;49.086;9.284;2022-07-23T15:55:56;33.10;34.40
4312;DHT22;2169;49.086;9.284;2022-07-23T15:58:23;33.10;34.40
4312;DHT22;2169;49.086;9.284;2022-07-23T16:00:50;33.10;34.10
4312;DHT22;2169;49.086;9.284;2022-07-23T16:03:18;33.10;34.20
4312;DHT22;2169;49.086;9.284;2022-07-23T16:05:44;33.00;34.20
4312;DHT22;2169;49.086;9.284;2022-07-23T16:08:11;32.90;34.30
4312;DHT22;2169;49.086;9.284;2022-07-23T16:10:38;32.80;34.50
4312;DHT22;2169;49.086;9.284;2022-07-23T16:13:05;32.90;34.80
4312;DHT22;2169;49.086;9.284;2022-07-23T16:15:32;32.90;34.70
4312;DHT22;2169;49.086;9.284;2022-07-23T16:17:59;32.90;34.70
4312;DHT22;2169;49.086;9.284;2022-07-23T16:20:27;32.90;34.70